Time,TemperatureF,DewpointF,PressureIn,WindDirection,WindDirectionDegrees,WindSpeedMPH,WindSpeedGustMPH,Humidity,HourlyPrecipIn,Conditions,Clouds,dailyrainin,SoftwareType,DateUTC
2013-02-26 00:00:00,38.7,33.7,30.61,North,0,0.0,0.9,82,0.00,,,0.01,WUHU216HW,2013-02-26 08:00:00,
2013-02-26 00:05:00,38.5,33.5,30.61,North,0,0.0,0.9,82,0.00,,,0.00,WUHU216HW,2013-02-26 08:05:00,
2013-02-26 00:10:00,38.3,33.7,30.61,North,0,0.0,0.4,83,0.00,,,0.00,WUHU216HW,2013-02-26 08:10:00,
2013-02-26 00:15:00,38.3,33.7,30.61,North,0,0.0,0.4,83,0.00,,,0.00,WUHU216HW,2013-02-26 08:15:00,
2013-02-26 00:20:00,38.2,33.8,30.61,North,0,0.0,0.9,84,0.00,,,0.00,WUHU216HW,2013-02-26 08:20:00,
2013-02-26 00:25:00,38.2,33.5,30.61,North,0,0.0,0.9,83,0.00,,,0.00,WUHU216HW,2013-02-26 08:25:00,
2013-02-26 00:30:00,38.2,33.8,30.61,North,0,0.0,0.9,84,0.00,,,0.00,WUHU216HW,2013-02-26 08:30:00,
2013-02-26 00:35:00,38.0,33.6,30.61,North,0,0.0,0.4,84,0.00,,,0.00,WUHU216HW,2013-02-26 08:35:00,
2013-02-26 00:39:00,38.0,33.6,30.61,North,0,0.0,0.4,84,0.00,,,0.00,WUHU216HW,2013-02-26 08:39:00,
2013-02-26 00:44:00,38.0,33.3,30.61,North,0,0.0,0.0,83,0.00,,,0.00,WUHU216HW,2013-02-26 08:44:00,
2013-02-26 00:49:00,38.0,33.3,30.61,North,0,0.0,0.0,83,0.00,,,0.00,WUHU216HW,2013-02-26 08:49:00,
2013-02-26 00:54:00,37.8,33.1,30.61,North,0,1.1,1.1,83,0.00,,,0.00,WUHU216HW,2013-02-26 08:54:00,
2013-02-26 00:59:00,37.8,33.1,30.61,North,0,0.0,1.1,83,0.00,,,0.00,WUHU216HW,2013-02-26 08:59:00,
2013-02-26 01:04:00,37.8,33.1,30.61,North,0,0.0,0.7,83,0.00,,,0.00,WUHU216HW,2013-02-26 09:04:00,
2013-02-26 01:09:00,37.8,33.1,30.62,North,0,0.0,0.0,83,0.00,,,0.00,WUHU216HW,2013-02-26 09:09:00,
2013-02-26 01:14:00,37.8,33.1,30.62,North,0,0.0,0.0,83,0.00,,,0.00,WUHU216HW,2013-02-26 09:14:00,
2013-02-26 01:19:00,37.8,33.1,30.62,North,0,0.0,0.0,83,0.00,,,0.00,WUHU216HW,2013-02-26 09:19:00,
2013-02-26 01:24:00,37.4,33.0,30.62,North,0,0.0,0.0,84,0.00,,,0.00,WUHU216HW,2013-02-26 09:24:00,
2013-02-26 01:29:00,37.4,33.0,30.62,SSW,203,0.0,0.2,84,0.00,,,0.00,WUHU216HW,2013-02-26 09:29:00,
2013-02-26 01:34:00,37.8,33.4,30.62,SSE,158,0.0,0.9,84,0.00,,,0.00,WUHU216HW,2013-02-26 09:34:00,
2013-02-26 01:39:00,37.8,33.4,30.62,SW,225,0.0,0.9,84,0.00,,,0.00,WUHU216HW,2013-02-26 09:39:00,
2013-02-26 01:44:00,38.0,33.6,30.63,SW,225,0.0,0.2,84,0.00,,,0.00,WUHU216HW,2013-02-26 09:44:00,
2013-02-26 01:49:00,37.8,33.4,30.63,SW,225,0.0,0.0,84,0.00,,,0.00,WUHU216HW,2013-02-26 09:49:00,
2013-02-26 01:54:00,37.8,33.4,30.63,SW,225,0.0,0.0,84,0.00,,,0.00,WUHU216HW,2013-02-26 09:54:00,
2013-02-26 01:59:00,37.6,33.2,30.63,North,0,0.0,0.2,84,0.00,,,0.00,WUHU216HW,2013-02-26 09:59:00,
2013-02-26 02:04:00,37.4,33.0,30.63,North,0,0.0,0.2,84,0.00,,,0.00,WUHU216HW,2013-02-26 10:04:00,
2013-02-26 02:09:00,37.3,33.1,30.63,North,0,0.0,0.2,85,0.00,,,0.00,WUHU216HW,2013-02-26 10:09:00,
2013-02-26 02:14:00,37.3,33.1,30.63,North,0,0.4,0.7,85,0.00,,,0.00,WUHU216HW,2013-02-26 10:14:00,
2013-02-26 02:19:00,37.1,32.9,30.63,North,0,0.0,0.9,85,0.00,,,0.00,WUHU216HW,2013-02-26 10:19:00,
2013-02-26 02:24:00,37.1,32.7,30.63,NNE,23,0.0,0.9,84,0.00,,,0.00,WUHU216HW,2013-02-26 10:24:00,
2013-02-26 02:29:00,37.1,32.7,30.63,NNE,23,0.0,0.9,84,0.00,,,0.00,WUHU216HW,2013-02-26 10:29:00,
2013-02-26 02:34:00,37.1,32.7,30.63,NNE,23,0.0,0.0,84,0.00,,,0.00,WUHU216HW,2013-02-26 10:34:00,
2013-02-26 02:39:00,37.1,32.7,30.63,NNE,23,0.0,0.0,84,0.00,,,0.00,WUHU216HW,2013-02-26 10:39:00,
2013-02-26 02:44:00,36.9,32.5,30.63,NNE,23,0.0,0.0,84,0.00,,,0.00,WUHU216HW,2013-02-26 10:44:00,
2013-02-26 02:49:00,36.7,32.3,30.63,North,0,0.0,0.0,84,0.00,,,0.00,WUHU216HW,2013-02-26 10:49:00,
2013-02-26 02:54:00,36.7,32.3,30.63,North,0,0.0,0.0,84,0.00,,,0.00,WUHU216HW,2013-02-26 10:54:00,
2013-02-26 02:59:00,36.5,32.4,30.63,North,0,0.4,0.4,85,0.00,,,0.00,WUHU216HW,2013-02-26 10:59:00,
2013-02-26 03:04:00,36.4,32.2,30.63,North,0,0.0,0.4,85,0.00,,,0.00,WUHU216HW,2013-02-26 11:04:00,
2013-02-26 03:09:00,36.4,32.2,30.62,North,0,0.0,0.0,85,0.00,,,0.00,WUHU216HW,2013-02-26 11:09:00,
2013-02-26 03:14:00,36.4,32.2,30.63,North,0,0.0,0.0,85,0.00,,,0.00,WUHU216HW,2013-02-26 11:14:00,
2013-02-26 03:19:00,36.4,32.2,30.63,North,0,0.0,0.0,85,0.00,,,0.00,WUHU216HW,2013-02-26 11:19:00,
2013-02-26 03:24:00,36.4,32.2,30.63,North,0,0.0,0.0,85,0.00,,,0.00,WUHU216HW,2013-02-26 11:24:00,
2013-02-26 03:29:00,36.4,32.2,30.63,North,0,0.0,0.2,85,0.00,,,0.00,WUHU216HW,2013-02-26 11:29:00,
2013-02-26 03:34:00,36.4,32.2,30.63,North,0,0.0,0.7,85,0.00,,,0.00,WUHU216HW,2013-02-26 11:34:00,
2013-02-26 03:39:00,36.4,32.5,30.63,North,0,0.0,0.7,86,0.00,,,0.00,WUHU216HW,2013-02-26 11:39:00,
2013-02-26 03:44:00,36.4,32.5,30.63,NW,315,0.4,0.4,86,0.00,,,0.00,WUHU216HW,2013-02-26 11:44:00,
2013-02-26 03:49:00,36.4,32.5,30.63,NW,315,0.0,0.4,86,0.00,,,0.00,WUHU216HW,2013-02-26 11:49:00,
2013-02-26 03:54:00,36.5,32.7,30.63,NW,315,0.0,0.0,86,0.00,,,0.00,WUHU216HW,2013-02-26 11:54:00,
2013-02-26 03:59:00,36.5,32.7,30.63,North,0,0.2,0.4,86,0.00,,,0.00,WUHU216HW,2013-02-26 11:59:00,
2013-02-26 04:04:00,36.7,32.9,30.63,North,0,0.0,0.4,86,0.00,,,0.00,WUHU216HW,2013-02-26 12:04:00,
2013-02-26 04:09:00,36.7,32.9,30.63,North,0,0.0,0.4,86,0.00,,,0.00,WUHU216HW,2013-02-26 12:09:00,
2013-02-26 04:14:00,36.9,33.0,30.63,North,0,0.4,0.7,86,0.00,,,0.00,WUHU216HW,2013-02-26 12:14:00,
2013-02-26 04:19:00,36.7,32.9,30.63,North,0,0.0,0.7,86,0.00,,,0.00,WUHU216HW,2013-02-26 12:19:00,
2013-02-26 04:24:00,36.9,33.0,30.63,WNW,293,0.0,0.4,86,0.00,,,0.00,WUHU216HW,2013-02-26 12:24:00,
2013-02-26 04:29:00,36.7,32.9,30.63,North,0,0.0,0.0,86,0.00,,,0.00,WUHU216HW,2013-02-26 12:29:00,
2013-02-26 04:34:00,37.1,33.2,30.63,WNW,293,0.4,0.4,86,0.00,,,0.00,WUHU216HW,2013-02-26 12:34:00,
2013-02-26 04:39:00,36.9,33.0,30.63,SSW,203,0.0,0.4,86,0.00,,,0.00,WUHU216HW,2013-02-26 12:39:00,
2013-02-26 04:44:00,36.7,32.9,30.63,SSE,158,0.2,0.4,86,0.00,,,0.00,WUHU216HW,2013-02-26 12:44:00,
2013-02-26 04:49:00,36.4,32.5,30.64,ENE,68,0.0,0.2,86,0.00,,,0.00,WUHU216HW,2013-02-26 12:49:00,
2013-02-26 04:54:00,36.4,32.5,30.64,SSE,158,0.2,0.4,86,0.00,,,0.00,WUHU216HW,2013-02-26 12:54:00,
2013-02-26 04:59:00,36.4,32.5,30.64,ENE,68,0.2,0.4,86,0.00,,,0.00,WUHU216HW,2013-02-26 12:59:00,
2013-02-26 05:04:00,36.4,32.5,30.64,North,0,0.0,0.2,86,0.00,,,0.00,WUHU216HW,2013-02-26 13:04:00,
2013-02-26 05:09:00,36.7,33.1,30.64,South,180,0.0,0.2,87,0.00,,,0.00,WUHU216HW,2013-02-26 13:09:00,
2013-02-26 05:14:00,36.9,33.3,30.64,South,180,0.0,0.0,87,0.00,,,0.00,WUHU216HW,2013-02-26 13:14:00,
2013-02-26 05:19:00,37.3,33.7,30.64,South,180,0.0,0.0,87,0.00,,,0.00,WUHU216HW,2013-02-26 13:19:00,
2013-02-26 05:24:00,37.6,34.0,30.64,South,180,0.0,0.0,87,0.00,,,0.00,WUHU216HW,2013-02-26 13:24:00,
2013-02-26 05:29:00,37.8,34.2,30.65,South,180,0.0,0.0,87,0.00,,,0.00,WUHU216HW,2013-02-26 13:29:00,
2013-02-26 05:34:00,37.8,33.9,30.64,South,180,0.0,0.0,86,0.00,,,0.00,WUHU216HW,2013-02-26 13:34:00,
2013-02-26 05:39:00,37.8,33.9,30.64,South,180,0.0,0.2,86,0.00,,,0.00,WUHU216HW,2013-02-26 13:39:00,
2013-02-26 05:44:00,38.0,34.1,30.64,South,180,0.0,0.2,86,0.00,,,0.00,WUHU216HW,2013-02-26 13:44:00,
2013-02-26 05:49:00,38.2,34.3,30.64,South,180,0.0,0.0,86,0.00,,,0.00,WUHU216HW,2013-02-26 13:49:00,
2013-02-26 05:54:00,38.2,34.3,30.64,South,180,0.0,0.0,86,0.00,,,0.00,WUHU216HW,2013-02-26 13:54:00,
2013-02-26 05:59:00,38.3,34.5,30.64,South,180,0.0,0.0,86,0.00,,,0.00,WUHU216HW,2013-02-26 13:59:00,
2013-02-26 06:04:00,38.3,34.5,30.64,South,180,0.0,0.0,86,0.00,,,0.00,WUHU216HW,2013-02-26 14:04:00,
2013-02-26 06:09:00,38.3,34.2,30.64,South,180,0.0,0.0,85,0.00,,,0.00,WUHU216HW,2013-02-26 14:09:00,
2013-02-26 06:14:00,38.3,34.5,30.64,South,180,0.0,0.0,86,0.00,,,0.00,WUHU216HW,2013-02-26 14:14:00,
2013-02-26 06:19:00,38.5,34.7,30.65,South,180,0.0,0.0,86,0.00,,,0.00,WUHU216HW,2013-02-26 14:19:00,
2013-02-26 06:24:00,38.5,34.7,30.64,South,180,0.0,0.0,86,0.00,,,0.00,WUHU216HW,2013-02-26 14:24:00,
2013-02-26 06:29:00,38.7,34.6,30.64,NE,45,0.0,1.1,85,0.00,,,0.00,WUHU216HW,2013-02-26 14:29:00,
2013-02-26 06:34:00,38.7,34.6,30.64,NE,45,0.0,1.1,85,0.00,,,0.00,WUHU216HW,2013-02-26 14:34:00,
2013-02-26 06:39:00,38.9,34.7,30.65,NE,45,0.0,0.4,85,0.00,,,0.00,WUHU216HW,2013-02-26 14:39:00,
2013-02-26 06:44:00,39.1,34.9,30.65,NE,45,0.0,0.2,85,0.00,,,0.00,WUHU216HW,2013-02-26 14:44:00,
2013-02-26 06:49:00,39.2,35.1,30.65,ENE,68,0.2,0.2,85,0.00,,,0.00,WUHU216HW,2013-02-26 14:49:00,
2013-02-26 06:54:00,39.2,35.1,30.65,WSW,248,0.4,0.4,85,0.00,,,0.00,WUHU216HW,2013-02-26 14:54:00,
2013-02-26 06:59:00,39.4,35.0,30.65,WSW,248,0.0,0.4,84,0.00,,,0.00,WUHU216HW,2013-02-26 14:59:00,
2013-02-26 07:04:00,39.6,35.2,30.65,WSW,248,0.0,0.4,84,0.00,,,0.00,WUHU216HW,2013-02-26 15:04:00,
2013-02-26 07:09:00,39.6,35.2,30.65,WSW,248,0.0,0.9,84,0.00,,,0.00,WUHU216HW,2013-02-26 15:09:00,
2013-02-26 07:14:00,39.6,35.2,30.65,SW,225,0.2,0.9,84,0.00,,,0.00,WUHU216HW,2013-02-26 15:14:00,
2013-02-26 07:19:00,39.6,35.2,30.65,NE,45,0.0,0.7,84,0.00,,,0.00,WUHU216HW,2013-02-26 15:19:00,
2013-02-26 07:24:00,39.6,35.2,30.65,NNE,23,0.0,0.2,84,0.00,,,0.00,WUHU216HW,2013-02-26 15:24:00,
2013-02-26 07:29:00,39.6,35.2,30.65,NNE,23,0.4,0.4,84,0.00,,,0.00,WUHU216HW,2013-02-26 15:29:00,
2013-02-26 07:34:00,39.4,35.0,30.65,ENE,68,0.0,1.1,84,0.00,,,0.00,WUHU216HW,2013-02-26 15:34:00,
2013-02-26 07:39:00,39.2,34.8,30.65,ENE,68,0.0,1.1,84,0.00,,,0.00,WUHU216HW,2013-02-26 15:39:00,
2013-02-26 07:44:00,39.2,34.8,30.65,NE,45,0.2,0.9,84,0.00,,,0.00,WUHU216HW,2013-02-26 15:44:00,
2013-02-26 07:49:00,39.4,35.0,30.65,NW,315,1.8,1.8,84,0.00,,,0.00,WUHU216HW,2013-02-26 15:49:00,
2013-02-26 07:54:00,39.6,35.2,30.65,North,0,0.4,1.8,84,0.00,,,0.00,WUHU216HW,2013-02-26 15:54:00,
2013-02-26 07:59:00,39.6,35.2,30.65,North,0,0.4,0.4,84,0.00,,,0.00,WUHU216HW,2013-02-26 15:59:00,
2013-02-26 08:04:00,39.6,35.2,30.65,North,0,0.0,0.4,84,0.00,,,0.00,WUHU216HW,2013-02-26 16:04:00,
2013-02-26 08:09:00,39.8,35.3,30.65,North,0,0.0,0.4,84,0.00,,,0.00,WUHU216HW,2013-02-26 16:09:00,
2013-02-26 08:14:00,39.8,35.3,30.65,North,0,0.0,0.0,84,0.00,,,0.00,WUHU216HW,2013-02-26 16:14:00,
2013-02-26 08:19:00,40.0,35.5,30.65,North,0,0.0,0.0,84,0.00,,,0.00,WUHU216HW,2013-02-26 16:19:00,
2013-02-26 08:24:00,40.1,35.4,30.66,North,0,0.0,0.0,83,0.00,,,0.00,WUHU216HW,2013-02-26 16:24:00,
2013-02-26 08:29:00,40.1,35.4,30.65,North,0,0.0,0.0,83,0.00,,,0.00,WUHU216HW,2013-02-26 16:29:00,
2013-02-26 08:34:00,40.3,35.6,30.66,North,0,0.0,0.0,83,0.00,,,0.00,WUHU216HW,2013-02-26 16:34:00,
2013-02-26 08:39:00,40.5,35.7,30.66,North,0,0.0,0.0,83,0.00,,,0.00,WUHU216HW,2013-02-26 16:39:00,
2013-02-26 08:44:00,40.7,35.8,30.66,North,0,0.0,0.0,83,0.00,,,0.00,WUHU216HW,2013-02-26 16:44:00,
2013-02-26 08:49:00,40.9,36.0,30.66,North,0,0.0,0.0,83,0.00,,,0.00,WUHU216HW,2013-02-26 16:49:00,
2013-02-26 08:54:00,41.2,36.4,30.66,North,0,0.0,0.0,83,0.00,,,0.00,WUHU216HW,2013-02-26 16:54:00,
2013-02-26 08:59:00,41.4,36.5,30.66,North,0,0.0,0.0,83,0.00,,,0.00,WUHU216HW,2013-02-26 16:59:00,
2013-02-26 09:04:00,41.4,36.5,30.66,North,0,0.0,0.0,83,0.00,,,0.00,WUHU216HW,2013-02-26 17:04:00,
2013-02-26 09:09:00,41.6,36.5,30.65,North,0,0.0,0.0,82,0.00,,,0.00,WUHU216HW,2013-02-26 17:09:00,
2013-02-26 09:14:00,41.9,36.8,30.66,North,0,0.0,0.0,82,0.00,,,0.00,WUHU216HW,2013-02-26 17:14:00,
2013-02-26 09:19:00,42.1,37.0,30.65,North,0,0.0,0.0,82,0.00,,,0.00,WUHU216HW,2013-02-26 17:19:00,
2013-02-26 09:24:00,42.3,37.2,30.65,North,0,0.0,0.0,82,0.00,,,0.00,WUHU216HW,2013-02-26 17:24:00,
2013-02-26 09:29:00,42.5,37.4,30.65,South,180,0.2,0.2,82,0.00,,,0.00,WUHU216HW,2013-02-26 17:29:00,
2013-02-26 09:34:00,42.7,37.2,30.65,SSW,203,0.0,0.2,81,0.00,,,0.00,WUHU216HW,2013-02-26 17:34:00,
2013-02-26 09:39:00,42.8,37.1,30.65,SE,135,1.8,1.8,80,0.00,,,0.00,WUHU216HW,2013-02-26 17:39:00,
2013-02-26 09:44:00,43.0,37.3,30.64,North,0,0.0,1.8,80,0.00,,,0.00,WUHU216HW,2013-02-26 17:44:00,
2013-02-26 09:49:00,43.4,37.9,30.64,North,0,0.0,1.8,81,0.00,,,0.00,WUHU216HW,2013-02-26 17:49:00,
2013-02-26 09:54:00,43.6,37.4,30.64,NE,45,0.4,3.4,79,0.00,,,0.00,WUHU216HW,2013-02-26 17:54:00,
2013-02-26 09:59:00,43.9,36.5,30.64,SSE,158,3.6,3.6,75,0.00,,,0.00,WUHU216HW,2013-02-26 17:59:00,
2013-02-26 10:04:00,44.1,37.0,30.64,SE,135,0.9,3.6,76,0.00,,,0.00,WUHU216HW,2013-02-26 18:04:00,
2013-02-26 10:09:00,44.3,37.2,30.63,SSW,203,0.2,3.4,76,0.00,,,0.00,WUHU216HW,2013-02-26 18:09:00,
2013-02-26 10:14:00,44.5,37.4,30.63,SSW,203,2.7,4.0,76,0.00,,,0.00,WUHU216HW,2013-02-26 18:14:00,
2013-02-26 10:19:00,44.6,37.2,30.63,SSW,203,2.2,4.0,75,0.00,,,0.00,WUHU216HW,2013-02-26 18:19:00,
2013-02-26 10:24:00,45.0,37.2,30.63,East,90,1.1,3.4,74,0.00,,,0.00,WUHU216HW,2013-02-26 18:24:00,
2013-02-26 10:29:00,45.2,37.4,30.63,South,180,2.5,3.4,74,0.00,,,0.00,WUHU216HW,2013-02-26 18:29:00,
2013-02-26 10:34:00,45.4,37.2,30.63,SSW,203,1.1,4.5,73,0.00,,,0.00,WUHU216HW,2013-02-26 18:34:00,
2013-02-26 10:39:00,45.4,36.9,30.63,West,270,2.5,4.5,72,0.00,,,0.00,WUHU216HW,2013-02-26 18:39:00,
2013-02-26 10:44:00,45.4,36.2,30.63,WSW,248,4.0,4.3,70,0.00,,,0.00,WUHU216HW,2013-02-26 18:44:00,
2013-02-26 10:49:00,45.4,36.2,30.63,SW,225,2.5,4.3,70,0.00,,,0.00,WUHU216HW,2013-02-26 18:49:00,
2013-02-26 10:54:00,45.7,36.2,30.63,WSW,248,5.4,5.4,69,0.00,,,0.00,WUHU216HW,2013-02-26 18:54:00,
2013-02-26 10:59:00,45.9,37.1,30.62,SSE,158,1.3,5.4,71,0.00,,,0.00,WUHU216HW,2013-02-26 18:59:00,
2013-02-26 11:04:00,46.1,37.3,30.62,South,180,3.8,3.8,71,0.00,,,0.00,WUHU216HW,2013-02-26 19:04:00,
2013-02-26 11:09:00,46.3,37.1,30.62,East,90,0.9,3.8,70,0.00,,,0.00,WUHU216HW,2013-02-26 19:09:00,
2013-02-26 11:14:00,46.3,37.1,30.62,West,270,0.2,2.9,70,0.00,,,0.00,WUHU216HW,2013-02-26 19:14:00,
2013-02-26 11:19:00,46.3,37.1,30.61,South,180,1.1,2.9,70,0.00,,,0.00,WUHU216HW,2013-02-26 19:19:00,
2013-02-26 11:24:00,46.4,36.9,30.61,SSW,203,2.2,3.4,69,0.00,,,0.00,WUHU216HW,2013-02-26 19:24:00,
2013-02-26 11:29:00,46.4,36.5,30.61,SW,225,2.5,3.4,68,0.00,,,0.00,WUHU216HW,2013-02-26 19:29:00,
2013-02-26 11:34:00,46.4,36.5,30.61,South,180,0.7,3.4,68,0.00,,,0.00,WUHU216HW,2013-02-26 19:34:00,
2013-02-26 11:39:00,46.4,36.1,30.61,SSE,158,2.2,3.4,67,0.00,,,0.00,WUHU216HW,2013-02-26 19:39:00,
2013-02-26 11:44:00,46.3,35.9,30.61,SSW,203,1.8,3.4,67,0.00,,,0.00,WUHU216HW,2013-02-26 19:44:00,
2013-02-26 11:49:00,46.3,36.3,30.61,SSW,203,1.3,2.5,68,0.00,,,0.00,WUHU216HW,2013-02-26 19:49:00,
2013-02-26 11:54:00,46.3,35.9,30.61,SSW,203,1.1,2.9,67,0.00,,,0.00,WUHU216HW,2013-02-26 19:54:00,
2013-02-26 11:59:00,46.1,34.9,30.61,SSW,203,1.6,3.6,65,0.00,,,0.00,WUHU216HW,2013-02-26 19:59:00,
2013-02-26 12:04:00,46.3,35.5,30.61,South,180,1.1,4.9,66,0.00,,,0.00,WUHU216HW,2013-02-26 20:04:00,
2013-02-26 12:09:00,46.1,35.4,30.61,SE,135,2.5,4.9,66,0.00,,,0.00,WUHU216HW,2013-02-26 20:09:00,
2013-02-26 12:14:00,46.3,35.1,30.60,SSW,203,2.7,2.9,65,0.00,,,0.00,WUHU216HW,2013-02-26 20:14:00,
2013-02-26 12:19:00,46.3,35.5,30.60,WSW,248,1.8,3.6,66,0.00,,,0.00,WUHU216HW,2013-02-26 20:19:00,
2013-02-26 12:24:00,46.4,35.6,30.60,SSE,158,1.3,3.6,66,0.00,,,0.00,WUHU216HW,2013-02-26 20:24:00,
2013-02-26 12:29:00,46.4,36.1,30.59,SSW,203,0.4,1.6,67,0.00,,,0.00,WUHU216HW,2013-02-26 20:29:00,
2013-02-26 12:34:00,46.8,36.5,30.59,WSW,248,2.0,2.5,67,0.00,,,0.00,WUHU216HW,2013-02-26 20:34:00,
2013-02-26 12:39:00,46.8,35.7,30.59,South,180,0.4,2.5,65,0.00,,,0.00,WUHU216HW,2013-02-26 20:39:00,
2013-02-26 12:44:00,47.0,35.0,30.59,WSW,248,1.8,3.4,63,0.00,,,0.00,WUHU216HW,2013-02-26 20:44:00,
2013-02-26 12:49:00,47.2,35.2,30.59,SSW,203,6.3,6.3,63,0.00,,,0.00,WUHU216HW,2013-02-26 20:49:00,
2013-02-26 12:54:00,47.2,35.6,30.59,SSE,158,1.8,6.3,64,0.00,,,0.00,WUHU216HW,2013-02-26 20:54:00,
2013-02-26 12:59:00,47.3,34.6,30.59,SW,225,3.6,4.0,61,0.00,,,0.00,WUHU216HW,2013-02-26 20:59:00,
2013-02-26 13:04:00,47.3,34.2,30.58,SSE,158,1.6,4.9,60,0.00,,,0.00,WUHU216HW,2013-02-26 21:04:00,
2013-02-26 13:09:00,47.3,35.0,30.58,SSW,203,1.3,4.9,62,0.00,,,0.00,WUHU216HW,2013-02-26 21:09:00,
2013-02-26 13:14:00,47.5,34.7,30.58,SW,225,3.1,4.3,61,0.00,,,0.00,WUHU216HW,2013-02-26 21:14:00,
2013-02-26 13:19:00,47.5,35.2,30.58,SW,225,4.0,4.0,62,0.00,,,0.00,WUHU216HW,2013-02-26 21:19:00,
2013-02-26 13:24:00,47.5,34.7,30.58,SSW,203,1.3,4.0,61,0.00,,,0.00,WUHU216HW,2013-02-26 21:24:00,
2013-02-26 13:29:00,47.5,35.2,30.58,SW,225,1.1,2.9,62,0.00,,,0.00,WUHU216HW,2013-02-26 21:29:00,
2013-02-26 13:34:00,47.5,35.6,30.58,South,180,2.7,4.0,63,0.00,,,0.00,WUHU216HW,2013-02-26 21:34:00,
2013-02-26 13:39:00,47.5,34.7,30.58,ENE,68,1.3,4.0,61,0.00,,,0.00,WUHU216HW,2013-02-26 21:39:00,
2013-02-26 13:44:00,47.5,34.7,30.57,SW,225,1.6,2.7,61,0.00,,,0.00,WUHU216HW,2013-02-26 21:44:00,
2013-02-26 13:49:00,47.5,33.9,30.57,SE,135,1.8,2.7,59,0.00,,,0.00,WUHU216HW,2013-02-26 21:49:00,
2013-02-26 13:54:00,47.9,35.1,30.56,SSE,158,4.0,4.0,61,0.00,,,0.00,WUHU216HW,2013-02-26 21:54:00,
2013-02-26 13:59:00,47.9,35.1,30.56,West,270,2.0,4.0,61,0.00,,,0.00,WUHU216HW,2013-02-26 21:59:00,
2013-02-26 14:04:00,48.1,35.3,30.56,SW,225,2.0,3.4,61,0.00,,,0.00,WUHU216HW,2013-02-26 22:04:00,
2013-02-26 14:09:00,48.1,35.3,30.56,SW,225,1.8,3.1,61,0.00,,,0.00,WUHU216HW,2013-02-26 22:09:00,
2013-02-26 14:14:00,48.2,34.7,30.56,NE,45,1.8,4.7,59,0.00,,,0.00,WUHU216HW,2013-02-26 22:14:00,
2013-02-26 14:19:00,48.2,35.5,30.56,SSW,203,2.5,4.7,61,0.00,,,0.00,WUHU216HW,2013-02-26 22:19:00,
2013-02-26 14:24:00,48.1,35.3,30.56,West,270,2.7,2.7,61,0.00,,,0.00,WUHU216HW,2013-02-26 22:24:00,
2013-02-26 14:29:00,48.1,34.5,30.56,SSW,203,1.3,2.7,59,0.00,,,0.00,WUHU216HW,2013-02-26 22:29:00,
2013-02-26 14:34:00,48.1,34.9,30.56,WSW,248,1.3,1.6,60,0.00,,,0.00,WUHU216HW,2013-02-26 22:34:00,
2013-02-26 14:39:00,48.1,34.5,30.56,SSE,158,0.7,2.5,59,0.00,,,0.00,WUHU216HW,2013-02-26 22:39:00,
2013-02-26 14:44:00,48.1,35.3,30.56,South,180,3.1,3.1,61,0.00,,,0.00,WUHU216HW,2013-02-26 22:44:00,
2013-02-26 14:49:00,48.2,35.5,30.56,SW,225,0.9,3.1,61,0.00,,,0.00,WUHU216HW,2013-02-26 22:49:00,
2013-02-26 14:54:00,48.2,34.7,30.55,SW,225,0.4,2.2,59,0.00,,,0.00,WUHU216HW,2013-02-26 22:54:00,
2013-02-26 14:59:00,48.2,34.7,30.56,South,180,1.3,2.5,59,0.00,,,0.00,WUHU216HW,2013-02-26 22:59:00,
2013-02-26 15:04:00,48.2,34.7,30.55,South,180,1.3,3.6,59,0.00,,,0.00,WUHU216HW,2013-02-26 23:04:00,
2013-02-26 15:09:00,48.2,34.7,30.55,West,270,1.1,3.6,59,0.00,,,0.00,WUHU216HW,2013-02-26 23:09:00,
2013-02-26 15:14:00,48.1,34.5,30.55,South,180,2.5,2.5,59,0.00,,,0.00,WUHU216HW,2013-02-26 23:14:00,
2013-02-26 15:19:00,48.1,34.5,30.55,WSW,248,1.8,3.1,59,0.00,,,0.00,WUHU216HW,2013-02-26 23:19:00,
2013-02-26 15:24:00,47.9,33.4,30.55,WSW,248,4.3,4.3,57,0.00,,,0.00,WUHU216HW,2013-02-26 23:24:00,
2013-02-26 15:29:00,48.1,34.5,30.55,SW,225,0.7,4.3,59,0.00,,,0.00,WUHU216HW,2013-02-26 23:29:00,
2013-02-26 15:34:00,48.1,34.9,30.55,SW,225,0.0,1.8,60,0.00,,,0.00,WUHU216HW,2013-02-26 23:34:00,
2013-02-26 15:39:00,48.2,35.1,30.55,SW,225,0.7,1.1,60,0.00,,,0.00,WUHU216HW,2013-02-26 23:39:00,
2013-02-26 15:44:00,48.2,35.5,30.55,SSW,203,1.1,1.1,61,0.00,,,0.00,WUHU216HW,2013-02-26 23:44:00,
2013-02-26 15:49:00,48.2,34.7,30.54,SW,225,2.5,2.5,59,0.00,,,0.00,WUHU216HW,2013-02-26 23:49:00,
2013-02-26 15:54:00,47.9,34.7,30.55,SW,225,0.0,2.5,60,0.00,,,0.00,WUHU216HW,2013-02-26 23:54:00,
2013-02-26 15:59:00,47.9,35.1,30.55,South,180,0.2,2.2,61,0.00,,,0.00,WUHU216HW,2013-02-26 23:59:00,
2013-02-26 16:04:00,47.9,34.7,30.55,WSW,248,0.9,2.0,60,0.00,,,0.00,WUHU216HW,2013-02-27 00:04:00,
2013-02-26 16:09:00,47.7,34.6,30.55,South,180,0.0,2.9,60,0.00,,,0.00,WUHU216HW,2013-02-27 00:09:00,
2013-02-26 16:14:00,47.7,34.9,30.55,SSW,203,0.2,2.9,61,0.00,,,0.00,WUHU216HW,2013-02-27 00:14:00,
2013-02-26 16:19:00,47.7,34.6,30.55,SSE,158,1.8,2.5,60,0.00,,,0.00,WUHU216HW,2013-02-27 00:19:00,
2013-02-26 16:24:00,47.5,34.4,30.54,SW,225,0.9,2.2,60,0.00,,,0.00,WUHU216HW,2013-02-27 00:24:00,
2013-02-26 16:29:00,47.3,34.2,30.54,WNW,293,0.4,2.2,60,0.00,,,0.00,WUHU216HW,2013-02-27 00:29:00,
2013-02-26 16:34:00,47.5,34.4,30.54,SSW,203,0.9,2.9,60,0.00,,,0.00,WUHU216HW,2013-02-27 00:34:00,
2013-02-26 16:39:00,47.3,34.6,30.54,West,270,0.4,2.9,61,0.00,,,0.00,WUHU216HW,2013-02-27 00:39:00,
2013-02-26 16:44:00,47.3,34.2,30.54,SW,225,1.8,3.1,60,0.00,,,0.00,WUHU216HW,2013-02-27 00:44:00,
2013-02-26 16:49:00,47.3,34.6,30.54,WSW,248,0.0,3.1,61,0.00,,,0.00,WUHU216HW,2013-02-27 00:49:00,
2013-02-26 16:54:00,47.2,34.4,30.54,SW,225,0.4,1.8,61,0.00,,,0.00,WUHU216HW,2013-02-27 00:54:00,
2013-02-26 16:59:00,47.2,34.4,30.54,SW,225,0.0,0.4,61,0.00,,,0.00,WUHU216HW,2013-02-27 00:59:00,
2013-02-26 17:04:00,47.2,34.8,30.53,North,0,0.0,0.0,62,0.00,,,0.00,WUHU216HW,2013-02-27 01:04:00,
2013-02-26 17:09:00,47.2,34.4,30.53,South,180,1.8,2.5,61,0.00,,,0.00,WUHU216HW,2013-02-27 01:09:00,
2013-02-26 17:14:00,47.0,34.2,30.53,SSW,203,0.4,2.9,61,0.00,,,0.00,WUHU216HW,2013-02-27 01:14:00,
2013-02-26 17:19:00,47.0,34.2,30.53,SSE,158,0.9,2.9,61,0.00,,,0.00,WUHU216HW,2013-02-27 01:19:00,
2013-02-26 17:24:00,46.8,33.7,30.53,SW,225,0.9,2.2,60,0.00,,,0.00,WUHU216HW,2013-02-27 01:24:00,
2013-02-26 17:29:00,46.8,34.0,30.53,NNW,338,1.1,1.6,61,0.00,,,0.00,WUHU216HW,2013-02-27 01:29:00,
2013-02-26 17:34:00,46.8,34.0,30.53,WSW,248,3.8,3.8,61,0.00,,,0.00,WUHU216HW,2013-02-27 01:34:00,
2013-02-26 17:39:00,46.6,33.5,30.53,East,90,2.0,3.8,60,0.00,,,0.00,WUHU216HW,2013-02-27 01:39:00,
2013-02-26 17:44:00,46.6,33.8,30.53,SW,225,1.6,2.9,61,0.00,,,0.00,WUHU216HW,2013-02-27 01:44:00,
2013-02-26 17:49:00,46.6,34.3,30.53,South,180,0.4,2.2,62,0.00,,,0.00,WUHU216HW,2013-02-27 01:49:00,
2013-02-26 17:54:00,46.4,34.1,30.53,WSW,248,0.7,1.8,62,0.00,,,0.00,WUHU216HW,2013-02-27 01:54:00,
2013-02-26 17:59:00,46.4,34.1,30.53,SSE,158,1.3,1.8,62,0.00,,,0.00,WUHU216HW,2013-02-27 01:59:00,
2013-02-26 18:04:00,46.4,33.7,30.53,South,180,1.3,1.8,61,0.00,,,0.00,WUHU216HW,2013-02-27 02:04:00,
2013-02-26 18:09:00,46.4,34.1,30.53,WSW,248,0.9,1.8,62,0.00,,,0.00,WUHU216HW,2013-02-27 02:09:00,
2013-02-26 18:14:00,46.3,34.3,30.53,SW,225,0.0,2.0,63,0.00,,,0.00,WUHU216HW,2013-02-27 02:14:00,
2013-02-26 18:19:00,46.3,34.3,30.52,SSE,158,0.0,2.0,63,0.00,,,0.00,WUHU216HW,2013-02-27 02:19:00,
2013-02-26 18:24:00,46.3,34.3,30.53,SSW,203,0.4,1.8,63,0.00,,,0.00,WUHU216HW,2013-02-27 02:24:00,
2013-02-26 18:29:00,46.1,34.1,30.53,SW,225,0.0,2.0,63,0.00,,,0.00,WUHU216HW,2013-02-27 02:29:00,
2013-02-26 18:34:00,46.1,34.1,30.53,SW,225,0.0,2.0,63,0.00,,,0.00,WUHU216HW,2013-02-27 02:34:00,
2013-02-26 18:39:00,46.1,34.6,30.53,West,270,0.0,0.7,64,0.01,,,0.01,WUHU216HW,2013-02-27 02:39:00,
2013-02-26 18:44:00,45.9,34.4,30.53,West,270,0.0,0.2,64,0.01,,,0.01,WUHU216HW,2013-02-27 02:44:00,
2013-02-26 18:49:00,45.9,34.4,30.53,WSW,248,0.0,0.2,64,0.01,,,0.01,WUHU216HW,2013-02-27 02:49:00,
2013-02-26 18:54:00,45.9,34.7,30.53,WSW,248,0.2,0.2,65,0.01,,,0.01,WUHU216HW,2013-02-27 02:54:00,
2013-02-26 18:59:00,45.7,34.6,30.53,WSW,248,0.0,0.2,65,0.01,,,0.01,WUHU216HW,2013-02-27 02:59:00,
2013-02-26 19:04:00,45.7,34.6,30.52,WSW,248,0.0,0.0,65,0.01,,,0.01,WUHU216HW,2013-02-27 03:04:00,
2013-02-26 19:09:00,45.7,34.6,30.52,SSW,203,1.1,1.1,65,0.01,,,0.01,WUHU216HW,2013-02-27 03:09:00,
2013-02-26 19:14:00,45.7,34.6,30.52,SW,225,0.0,1.1,65,0.01,,,0.01,WUHU216HW,2013-02-27 03:14:00,
2013-02-26 19:19:00,45.7,34.6,30.52,WSW,248,1.1,1.1,65,0.01,,,0.01,WUHU216HW,2013-02-27 03:19:00,
2013-02-26 19:24:00,45.7,34.6,30.52,WSW,248,0.0,1.1,65,0.01,,,0.01,WUHU216HW,2013-02-27 03:24:00,
2013-02-26 19:29:00,45.5,34.8,30.52,WSW,248,0.0,3.1,66,0.01,,,0.01,WUHU216HW,2013-02-27 03:29:00,
2013-02-26 19:34:00,45.5,34.5,30.52,SSW,203,3.6,4.7,65,0.00,,,0.01,WUHU216HW,2013-02-27 03:34:00,
2013-02-26 19:39:00,45.5,34.5,30.52,South,180,2.7,4.7,65,0.00,,,0.01,WUHU216HW,2013-02-27 03:39:00,
2013-02-26 19:44:00,45.5,34.5,30.51,SSW,203,2.2,3.4,65,0.00,,,0.01,WUHU216HW,2013-02-27 03:44:00,
2013-02-26 19:49:00,45.7,34.6,30.51,SSE,158,0.2,4.0,65,0.00,,,0.01,WUHU216HW,2013-02-27 03:49:00,
2013-02-26 19:54:00,45.7,34.6,30.51,South,180,2.2,4.0,65,0.00,,,0.01,WUHU216HW,2013-02-27 03:54:00,
2013-02-26 19:59:00,45.7,34.6,30.51,SSE,158,2.7,4.5,65,0.00,,,0.01,WUHU216HW,2013-02-27 03:59:00,
2013-02-26 20:04:00,45.5,34.5,30.51,South,180,2.0,4.5,65,0.00,,,0.01,WUHU216HW,2013-02-27 04:04:00,
2013-02-26 20:09:00,45.5,34.8,30.51,SSW,203,0.4,4.0,66,0.00,,,0.01,WUHU216HW,2013-02-27 04:09:00,
2013-02-26 20:14:00,45.5,34.8,30.51,SSW,203,0.4,2.0,66,0.00,,,0.01,WUHU216HW,2013-02-27 04:14:00,
2013-02-26 20:37:00,45.4,35.0,30.52,WSW,248,2.2,2.2,67,0.00,,,0.01,WUHU216HW,2013-02-27 04:37:00,
2013-02-26 20:42:00,45.4,35.0,30.52,South,180,1.6,2.5,67,0.00,,,0.01,WUHU216HW,2013-02-27 04:42:00,
2013-02-26 20:47:00,45.4,35.0,30.52,SW,225,0.0,2.9,67,0.00,,,0.01,WUHU216HW,2013-02-27 04:47:00,
2013-02-26 20:52:00,45.2,34.8,30.52,South,180,0.4,2.9,67,0.00,,,0.01,WUHU216HW,2013-02-27 04:52:00,
2013-02-26 20:57:00,45.2,34.8,30.52,SW,225,1.3,1.6,67,0.00,,,0.01,WUHU216HW,2013-02-27 04:57:00,
2013-02-26 21:00:00,45.2,34.8,30.52,WSW,248,0.4,1.3,67,0.00,,,0.01,WUHU216HW,2013-02-27 05:00:00,
2013-02-26 21:05:00,45.2,34.8,30.52,WSW,248,0.0,1.3,67,0.00,,,0.01,WUHU216HW,2013-02-27 05:05:00,
2013-02-26 21:10:00,45.2,34.8,30.52,SSW,203,4.3,4.3,67,0.00,,,0.01,WUHU216HW,2013-02-27 05:10:00,
2013-02-26 21:15:00,45.2,34.8,30.52,NW,315,0.0,4.3,67,0.00,,,0.01,WUHU216HW,2013-02-27 05:15:00,
2013-02-26 21:20:00,45.2,34.8,30.52,SW,225,0.0,2.0,67,0.00,,,0.01,WUHU216HW,2013-02-27 05:20:00,
2013-02-26 21:25:00,45.2,35.2,30.52,SW,225,0.0,2.0,68,0.00,,,0.01,WUHU216HW,2013-02-27 05:25:00,
2013-02-26 21:30:00,45.2,35.2,30.52,WSW,248,0.2,0.2,68,0.00,,,0.01,WUHU216HW,2013-02-27 05:30:00,
2013-02-26 21:35:00,45.0,35.1,30.52,SSW,203,0.0,0.9,68,0.00,,,0.01,WUHU216HW,2013-02-27 05:35:00,
2013-02-26 21:40:00,45.0,35.1,30.52,SSW,203,0.0,0.9,68,0.00,,,0.01,WUHU216HW,2013-02-27 05:40:00,
2013-02-26 21:45:00,45.0,35.5,30.52,NNW,338,0.2,0.2,69,0.00,,,0.01,WUHU216HW,2013-02-27 05:45:00,
2013-02-26 21:50:00,45.0,35.5,30.51,NNW,338,0.0,0.4,69,0.00,,,0.01,WUHU216HW,2013-02-27 05:50:00,
2013-02-26 21:55:00,44.8,35.3,30.52,NNW,338,0.0,0.4,69,0.00,,,0.01,WUHU216HW,2013-02-27 05:55:00,
2013-02-26 22:00:00,44.8,35.3,30.51,NNE,23,0.7,0.7,69,0.00,,,0.01,WUHU216HW,2013-02-27 06:00:00,
2013-02-26 22:05:00,44.8,34.9,30.51,NNW,338,1.6,4.7,68,0.00,,,0.01,WUHU216HW,2013-02-27 06:05:00,
2013-02-26 22:10:00,45.0,35.1,30.51,SW,225,0.4,4.7,68,0.00,,,0.01,WUHU216HW,2013-02-27 06:10:00,
2013-02-26 22:15:00,45.0,35.1,30.51,WSW,248,2.7,2.7,68,0.00,,,0.01,WUHU216HW,2013-02-27 06:15:00,
2013-02-26 22:20:00,45.0,35.1,30.51,SSW,203,0.2,2.7,68,0.00,,,0.01,WUHU216HW,2013-02-27 06:20:00,
2013-02-26 22:25:00,45.0,35.1,30.51,SW,225,0.0,2.0,68,0.00,,,0.01,WUHU216HW,2013-02-27 06:25:00,
2013-02-26 22:30:00,45.0,35.1,30.51,SW,225,0.0,2.0,68,0.00,,,0.01,WUHU216HW,2013-02-27 06:30:00,
2013-02-26 22:35:00,45.0,35.1,30.51,SW,225,1.3,2.0,68,0.00,,,0.01,WUHU216HW,2013-02-27 06:35:00,
2013-02-26 22:40:00,45.0,35.1,30.51,WSW,248,2.7,3.4,68,0.00,,,0.01,WUHU216HW,2013-02-27 06:40:00,
2013-02-26 22:45:00,45.0,35.1,30.50,SSW,203,0.4,3.8,68,0.00,,,0.01,WUHU216HW,2013-02-27 06:45:00,
2013-02-26 22:50:00,45.0,35.1,30.50,SSE,158,0.0,3.8,68,0.00,,,0.01,WUHU216HW,2013-02-27 06:50:00,
2013-02-26 22:55:00,45.0,35.1,30.50,SSE,158,0.0,1.1,68,0.00,,,0.01,WUHU216HW,2013-02-27 06:55:00,
2013-02-26 23:00:00,45.0,35.1,30.51,West,270,0.0,0.4,68,0.00,,,0.01,WUHU216HW,2013-02-27 07:00:00,
2013-02-26 23:05:00,45.0,35.5,30.51,WSW,248,0.7,3.1,69,0.00,,,0.01,WUHU216HW,2013-02-27 07:05:00,
2013-02-26 23:10:00,45.0,35.5,30.51,SSE,158,1.3,3.1,69,0.00,,,0.01,WUHU216HW,2013-02-27 07:10:00,
2013-02-26 23:15:00,45.0,35.5,30.51,South,180,1.6,3.4,69,0.00,,,0.01,WUHU216HW,2013-02-27 07:15:00,
2013-02-26 23:20:00,45.2,35.2,30.51,West,270,2.5,3.4,68,0.00,,,0.01,WUHU216HW,2013-02-27 07:20:00,
2013-02-26 23:25:00,45.2,35.7,30.51,SSW,203,2.5,3.1,69,0.00,,,0.01,WUHU216HW,2013-02-27 07:25:00,
2013-02-26 23:30:00,45.2,36.0,30.51,North,0,0.0,2.5,70,0.00,,,0.01,WUHU216HW,2013-02-27 07:30:00,
2013-02-26 23:35:00,45.0,36.2,30.51,NNE,23,1.3,1.6,71,0.00,,,0.01,WUHU216HW,2013-02-27 07:35:00,
2013-02-26 23:40:00,44.6,36.2,30.51,SSW,203,0.0,1.6,72,0.00,,,0.01,WUHU216HW,2013-02-27 07:40:00,
2013-02-26 23:45:00,44.5,36.4,30.51,SSW,203,0.2,0.9,73,0.00,,,0.01,WUHU216HW,2013-02-27 07:45:00,
2013-02-26 23:50:00,44.3,36.2,30.51,WSW,248,0.2,0.9,73,0.00,,,0.01,WUHU216HW,2013-02-27 07:50:00,
2013-02-26 23:55:00,44.3,36.5,30.51,SSE,158,0.4,1.8,74,0.00,,,0.01,WUHU216HW,2013-02-27 07:55:00,